Time;durP1;ratioP1;P1;durP2;ratioP2;P2;SDS_P1;SDS_P2;PMS_P1;PMS_P2;Temp;Humidity;BMP_temperature;BMP_pressure;BME280_temperature;BME280_humidity;BME280_pressure;Samples;Min_cycle;Max_cycle;Signal;HPM_P1;HPM_P2
2023/12/04 00:00:20;;;;;;;;;7.00;7.00;;;;;4.72;48.39;100709.16;5084250;27;67806;-66
2023/12/04 00:02:46;;;;;;;;;8.00;6.33;;;;;4.73;49.11;100705.63;5076842;27;62820;-65
2023/12/04 00:05:11;;;;;;;;;8.67;7.00;;;;;4.74;48.47;100691.50;5073095;28;57022;-65
2023/12/04 00:07:36;;;;;;;;;7.00;5.33;;;;;4.74;48.63;100696.78;5076776;27;69079;-65
2023/12/04 00:10:02;;;;;;;;;8.00;7.67;;;;;4.72;48.10;100688.06;5075981;27;68504;-67
2023/12/04 00:12:27;;;;;;;;;8.00;8.00;;;;;4.73;48.53;100683.66;5074623;27;46801;-65
2023/12/04 00:14:52;;;;;;;;;4.33;4.33;;;;;4.73;48.45;100671.34;5079687;27;72735;-66
2023/12/04 00:17:18;;;;;;;;;6.00;6.00;;;;;4.74;48.18;100667.78;5085129;27;61966;-65
2023/12/04 00:19:43;;;;;;;;;6.33;6.33;;;;;4.75;48.60;100655.50;5079939;27;45533;-66
2023/12/04 00:22:09;;;;;;;;;5.67;3.67;;;;;4.78;49.18;100663.31;5084617;27;45253;-67
2023/12/04 00:24:34;;;;;;;;;7.00;5.33;;;;;4.80;48.69;100662.34;5074821;27;64864;-66
2023/12/04 00:26:59;;;;;;;;;9.67;7.67;;;;;4.82;48.62;100654.41;5072873;27;68082;-66
2023/12/04 00:29:24;;;;;;;;;5.33;4.00;;;;;4.83;48.37;100658.78;5075401;27;70267;-66
2023/12/04 00:31:50;;;;;;;;;8.67;5.00;;;;;4.85;48.74;100648.19;5081088;27;71449;-67
2023/12/04 00:34:15;;;;;;;;;7.67;6.33;;;;;4.85;48.53;100649.06;5073885;27;45346;-66
2023/12/04 00:36:40;;;;;;;;;4.33;4.00;;;;;4.86;48.44;100640.22;5080648;27;45615;-65
2023/12/04 00:39:06;;;;;;;;;4.00;4.00;;;;;4.88;49.19;100634.94;5082733;27;52170;-66
2023/12/04 00:41:31;;;;;;;;;7.67;6.67;;;;;4.91;49.18;100624.28;5079541;27;75417;-66
2023/12/04 00:43:57;;;;;;;;;5.67;5.67;;;;;4.90;48.06;100620.78;5077696;28;72812;-65
2023/12/04 00:46:22;;;;;;;;;7.00;4.33;;;;;4.92;49.04;100618.13;5080049;27;68299;-65
2023/12/04 00:48:48;;;;;;;;;3.00;3.00;;;;;4.95;49.13;100608.34;5083966;27;45366;-65
2023/12/04 00:51:13;;;;;;;;;7.33;6.67;;;;;4.96;49.16;100602.13;5077452;27;45391;-65
2023/12/04 00:53:38;;;;;;;;;5.67;4.33;;;;;4.99;49.14;100589.78;5073464;27;73038;-66
2023/12/04 00:56:05;;;;;;;;;4.33;4.33;;;;;5.02;48.98;100585.28;5082882;27;45321;-67
2023/12/04 00:58:30;;;;;;;;;8.33;5.00;;;;;5.03;48.97;100580.88;5080882;27;45683;-66
2023/12/04 01:00:56;;;;;;;;;8.33;2.67;;;;;5.03;49.21;100581.75;5076866;27;74218;-67
2023/12/04 01:03:22;;;;;;;;;6.67;4.33;;;;;5.05;49.27;100579.91;5075610;28;45403;-65
2023/12/04 01:05:47;;;;;;;;;4.00;3.67;;;;;5.04;49.10;100562.38;5078614;27;45481;-67
2023/12/04 01:08:13;;;;;;;;;4.67;4.67;;;;;5.04;49.00;100561.50;5079768;28;51412;-66
2023/12/04 01:10:39;;;;;;;;;4.33;4.33;;;;;5.06;48.89;100564.94;5085184;27;47266;-65
2023/12/04 01:13:05;;;;;;;;;7.67;6.00;;;;;5.09;49.07;100559.59;5086642;27;45283;-66
2023/12/04 01:15:30;;;;;;;;;6.67;4.33;;;;;5.11;49.06;100555.13;5081843;27;45248;-66
2023/12/04 01:17:55;;;;;;;;;6.67;4.00;;;;;5.12;48.93;100544.56;5082282;27;45299;-66
2023/12/04 01:20:21;;;;;;;;;6.67;5.33;;;;;5.15;48.94;100546.22;5084298;27;74564;-68
2023/12/04 01:22:46;;;;;;;;;5.00;3.67;;;;;5.15;49.57;100533.06;5083321;27;55054;-66
2023/12/04 01:25:11;;;;;;;;;4.33;4.33;;;;;5.16;49.11;100523.34;5083605;27;47908;-66
2023/12/04 01:27:37;;;;;;;;;7.67;5.00;;;;;5.16;48.69;100523.34;5076728;27;70301;-66
2023/12/04 01:30:04;;;;;;;;;5.00;4.33;;;;;5.16;48.93;100518.06;5084908;27;46405;-67
2023/12/04 01:32:30;;;;;;;;;4.00;4.00;;;;;5.16;48.88;100518.94;5075518;27;47535;-66
2023/12/04 01:34:55;;;;;;;;;4.00;4.00;;;;;5.17;48.87;100506.63;5078008;27;46811;-67
2023/12/04 01:37:20;;;;;;;;;5.00;5.00;;;;;5.19;49.04;100508.31;5080296;27;56153;-66
2023/12/04 01:39:46;;;;;;;;;8.33;5.00;;;;;5.18;48.89;100509.22;5078228;27;75466;-67
2023/12/04 01:42:11;;;;;;;;;6.67;3.67;;;;;5.20;49.47;100506.50;5073490;28;50412;-66
2023/12/04 01:44:36;;;;;;;;;4.00;2.67;;;;;5.22;49.14;100488.88;5071952;27;69027;-66
2023/12/04 01:47:03;;;;;;;;;7.67;4.67;;;;;5.25;49.43;100496.69;5078607;27;70208;-67
2023/12/04 01:49:28;;;;;;;;;4.67;4.33;;;;;5.25;49.00;100497.56;5070974;28;47229;-66
2023/12/04 01:51:54;;;;;;;;;5.00;5.00;;;;;5.23;48.73;100496.72;5081736;27;72938;-66
2023/12/04 01:54:20;;;;;;;;;9.67;4.00;;;;;5.25;49.31;100496.69;5069570;28;53752;-66
2023/12/04 01:56:46;;;;;;;;;9.67;5.00;;;;;5.25;49.61;100487.00;5080448;27;45385;-66
2023/12/04 01:59:12;;;;;;;;;7.00;5.00;;;;;5.26;49.27;100493.13;5059292;28;46882;-66
2023/12/04 02:01:37;;;;;;;;;3.33;3.33;;;;;5.28;49.56;100478.13;5071185;28;70589;-67
2023/12/04 02:04:03;;;;;;;;;5.33;4.00;;;;;5.28;49.46;100480.78;5070843;28;45501;-66
2023/12/04 02:06:28;;;;;;;;;4.33;4.00;;;;;5.28;49.38;100486.91;5071799;27;45329;-65
2023/12/04 02:08:54;;;;;;;;;4.67;3.33;;;;;5.30;49.25;100494.75;5078001;27;64208;-66
2023/12/04 02:11:19;;;;;;;;;4.67;4.00;;;;;5.32;49.54;100500.84;5080970;27;71889;-66
2023/12/04 02:13:44;;;;;;;;;4.33;4.00;;;;;5.32;49.65;100499.97;5078606;27;63949;-66
2023/12/04 02:16:12;;;;;;;;;4.33;4.33;;;;;5.30;49.11;100498.25;5076932;27;58712;-66
2023/12/04 02:18:37;;;;;;;;;4.00;4.00;;;;;5.27;48.85;100498.34;5077753;28;46361;-67
2023/12/04 02:21:03;;;;;;;;;7.67;4.00;;;;;5.26;49.58;100491.34;5071281;27;71818;-67
2023/12/04 02:23:28;;;;;;;;;3.33;3.33;;;;;5.27;49.53;100484.31;5073249;28;45483;-66
2023/12/04 02:25:59;;;;;;;;;3.67;3.00;;;;;5.25;49.22;100479.09;5071292;27;64208;-66
2023/12/04 02:28:25;;;;;;;;;4.67;4.00;;;;;5.27;49.63;100476.41;5081878;27;48395;-66
2023/12/04 02:30:50;;;;;;;;;6.67;4.67;;;;;5.27;49.47;100486.97;5071602;28;73109;-67
2023/12/04 02:33:18;;;;;;;;;3.33;3.33;;;;;5.27;49.94;100484.31;5077312;28;45456;-65
2023/12/04 02:35:43;;;;;;;;;5.67;4.00;;;;;5.26;49.30;100480.78;5092751;27;70349;-66
2023/12/04 02:38:09;;;;;;;;;5.67;4.67;;;;;5.26;49.81;100483.44;5077008;28;46072;-66
2023/12/04 02:40:34;;;;;;;;;5.33;4.00;;;;;5.27;49.69;100485.16;5072563;28;73164;-65
2023/12/04 02:43:00;;;;;;;;;7.00;5.00;;;;;5.27;50.07;100471.13;5077036;27;69522;-66
2023/12/04 02:45:25;;;;;;;;;7.00;7.00;;;;;5.27;49.67;100479.91;5073539;27;67124;-66
2023/12/04 02:47:50;;;;;;;;;6.33;4.00;;;;;5.30;49.77;100478.94;5078790;27;46337;-66
2023/12/04 02:50:16;;;;;;;;;6.67;4.00;;;;;5.29;49.26;100478.09;5071518;28;72014;-66
2023/12/04 02:52:41;;;;;;;;;5.00;4.00;;;;;5.29;49.96;100469.28;5059451;28;69175;-66
2023/12/04 02:55:07;;;;;;;;;7.67;5.00;;;;;5.32;49.67;100469.19;5066712;27;68334;-67
2023/12/04 02:57:32;;;;;;;;;4.00;4.00;;;;;5.33;50.06;100468.25;5085401;27;46694;-69
2023/12/04 02:59:58;;;;;;;;;5.33;4.00;;;;;5.32;49.84;100461.28;5069798;28;72026;-67
2023/12/04 03:02:23;;;;;;;;;4.00;4.00;;;;;5.35;50.07;100455.91;5077025;28;68357;-67
2023/12/04 03:04:48;;;;;;;;;4.33;4.33;;;;;5.35;49.89;100455.06;5067450;27;45310;-66
2023/12/04 03:07:14;;;;;;;;;5.67;4.00;;;;;5.37;50.31;100445.28;5074272;27;76636;-67
2023/12/04 03:09:39;;;;;;;;;4.00;4.00;;;;;5.38;50.38;100439.97;5072356;28;45489;-65
2023/12/04 03:12:05;;;;;;;;;5.33;5.33;;;;;5.39;49.95;100428.50;5081090;27;45397;-67
2023/12/04 03:14:30;;;;;;;;;5.00;5.00;;;;;5.39;50.28;100425.00;5072625;27;46192;-66
2023/12/04 03:16:55;;;;;;;;;4.67;3.00;;;;;5.41;50.48;100424.03;5080672;27;75247;-66
2023/12/04 03:19:21;;;;;;;;;8.33;5.00;;;;;5.43;50.09;100424.00;5077682;27;45272;-67
2023/12/04 03:21:46;;;;;;;;;4.33;3.33;;;;;5.42;50.41;100412.59;5080275;27;69155;-66
2023/12/04 03:24:11;;;;;;;;;6.00;5.00;;;;;5.45;50.43;100416.91;5075265;27;57689;-66
2023/12/04 03:26:37;;;;;;;;;6.33;5.67;;;;;5.46;50.61;100397.50;5085116;27;46136;-66
2023/12/04 03:29:02;;;;;;;;;4.00;4.00;;;;;5.49;51.26;100404.44;5077485;27;69456;-66
2023/12/04 03:31:28;;;;;;;;;3.33;3.33;;;;;5.48;50.65;100408.88;5081431;27;68608;-66
2023/12/04 03:33:53;;;;;;;;;9.33;6.00;;;;;5.47;50.84;100405.38;5075300;27;45304;-66
2023/12/04 03:36:18;;;;;;;;;7.33;5.00;;;;;5.50;51.32;100392.97;5086957;27;45283;-66
2023/12/04 03:38:44;;;;;;;;;8.00;6.67;;;;;5.51;51.80;100399.97;5076340;27;58716;-66
2023/12/04 03:41:16;;;;;;;;;7.33;3.67;;;;;5.49;51.89;100393.88;5080616;28;45256;-67
2023/12/04 03:43:41;;;;;;;;;3.33;3.33;;;;;5.49;52.29;100383.31;5078150;27;45404;-67
2023/12/04 03:46:07;;;;;;;;;7.67;7.67;;;;;5.51;53.04;100381.50;5073156;27;48577;-66
2023/12/04 03:48:32;;;;;;;;;8.00;4.00;;;;;5.50;52.72;100390.34;5079558;28;63573;-66
2023/12/04 03:50:57;;;;;;;;;8.33;6.33;;;;;5.47;54.28;100375.47;5080349;27;47406;-66
2023/12/04 03:53:23;;;;;;;;;4.33;4.00;;;;;5.44;54.53;100380.88;5067968;28;45292;-66
2023/12/04 03:55:48;;;;;;;;;7.00;5.00;;;;;5.39;56.70;100398.63;5081918;27;47164;-66
2023/12/04 03:58:13;;;;;;;;;3.67;3.00;;;;;5.34;56.73;100382.09;5087414;27;67858;-67
2023/12/04 04:00:41;;;;;;;;;4.00;4.00;;;;;5.33;56.65;100396.19;5074916;28;69193;-66
2023/12/04 04:03:07;;;;;;;;;3.33;3.33;;;;;5.30;57.03;100389.25;5067474;28;45684;-65
2023/12/04 04:05:34;;;;;;;;;11.33;5.00;;;;;5.29;57.22;100390.16;5082633;27;45426;-66
2023/12/04 04:07:59;;;;;;;;;5.00;4.00;;;;;5.28;57.08;100377.91;5079347;28;45455;-67
2023/12/04 04:10:24;;;;;;;;;3.67;3.67;;;;;5.26;57.16;100385.84;5075735;27;45312;-65
2023/12/04 04:12:50;;;;;;;;;3.00;3.00;;;;;5.26;57.75;100383.22;5073225;28;70635;-66
2023/12/04 04:15:15;;;;;;;;;4.33;4.00;;;;;5.25;58.40;100372.72;5072888;27;74017;-65
2023/12/04 04:17:41;;;;;;;;;6.67;4.67;;;;;5.24;58.46;100369.25;5080966;27;45409;-66
2023/12/04 04:20:07;;;;;;;;;7.00;4.33;;;;;5.24;58.88;100363.09;5095598;27;63881;-65
2023/12/04 04:22:37;;;;;;;;;8.00;5.00;;;;;5.24;59.19;100360.44;5070551;27;45466;-66
2023/12/04 04:25:04;;;;;;;;;3.67;3.67;;;;;5.20;59.03;100345.66;5075481;27;47370;-66
2023/12/04 04:27:29;;;;;;;;;4.33;4.33;;;;;5.17;58.53;100338.72;5071034;27;45401;-65
2023/12/04 04:29:54;;;;;;;;;7.00;4.00;;;;;5.16;58.72;100344.91;5073096;28;61635;-65
2023/12/04 04:32:19;;;;;;;;;4.00;4.00;;;;;5.17;59.28;100343.13;5079489;27;68853;-65
2023/12/04 04:34:45;;;;;;;;;3.33;1.67;;;;;5.16;59.89;100329.06;5083330;27;74304;-66
2023/12/04 04:37:10;;;;;;;;;3.67;3.00;;;;;5.17;60.40;100317.63;5069395;27;71351;-66
2023/12/04 04:39:35;;;;;;;;;4.67;4.00;;;;;5.18;60.35;100315.88;5072862;28;67979;-66
2023/12/04 04:42:01;;;;;;;;;5.00;3.00;;;;;5.20;60.32;100308.75;5074358;28;45641;-64
2023/12/04 04:44:26;;;;;;;;;7.00;4.67;;;;;5.22;61.20;100306.91;5078660;28;74362;-66
2023/12/04 04:46:51;;;;;;;;;3.33;3.33;;;;;5.22;60.72;100299.00;5067204;27;73259;-65
2023/12/04 04:49:17;;;;;;;;;5.00;3.00;;;;;5.22;61.96;100302.50;5072389;28;68573;-66
2023/12/04 04:51:42;;;;;;;;;4.67;4.00;;;;;5.20;62.55;100288.53;5080381;27;45621;-66
2023/12/04 04:54:07;;;;;;;;;3.00;3.00;;;;;5.19;61.92;100284.16;5077531;27;45921;-66
2023/12/04 04:56:32;;;;;;;;;3.00;3.00;;;;;5.20;61.52;100275.34;5082491;27;72199;-66
2023/12/04 04:58:58;;;;;;;;;2.00;2.00;;;;;5.19;62.00;100276.25;5078684;28;63360;-65
2023/12/04 05:01:23;;;;;;;;;4.33;3.00;;;;;5.16;63.75;100265.78;5080568;27;45262;-65
2023/12/04 05:03:48;;;;;;;;;3.00;3.00;;;;;5.14;63.98;100262.38;5079546;27;66483;-65
2023/12/04 05:06:14;;;;;;;;;2.00;2.00;;;;;5.09;64.37;100246.69;5076281;27;61749;-65
2023/12/04 05:08:39;;;;;;;;;5.00;3.00;;;;;5.10;65.06;100250.22;5092929;27;45346;-65
2023/12/04 05:11:05;;;;;;;;;5.00;3.00;;;;;5.08;64.92;100252.88;5087026;27;70704;-65
2023/12/04 05:13:30;;;;;;;;;4.00;4.00;;;;;5.09;64.64;100248.50;5081059;27;73467;-66
2023/12/04 05:15:56;;;;;;;;;7.00;4.00;;;;;5.09;65.10;100237.94;5078769;27;71351;-65
2023/12/04 05:18:21;;;;;;;;;4.00;4.00;;;;;5.08;66.47;100236.22;5079438;27;45287;-66
2023/12/04 05:20:46;;;;;;;;;3.33;3.33;;;;;5.08;65.12;100229.16;5079808;27;54064;-66
2023/12/04 05:23:12;;;;;;;;;3.00;3.00;;;;;5.06;68.99;100223.09;5075427;27;74422;-67
2023/12/04 05:25:37;;;;;;;;;3.00;3.00;;;;;5.06;67.58;100225.72;5071366;27;65163;-66
2023/12/04 05:28:03;;;;;;;;;2.33;2.00;;;;;5.04;67.64;100210.88;5071823;27;47381;-66
2023/12/04 05:30:28;;;;;;;;;7.00;7.00;;;;;5.03;68.41;100217.94;5077668;27;45642;-65
2023/12/04 05:32:54;;;;;;;;;4.00;4.00;;;;;4.99;75.56;100200.50;5076785;27;75396;-65
2023/12/04 05:35:19;;;;;;;;;4.00;3.00;;;;;4.97;72.27;100183.91;5075086;27;45343;-65
2023/12/04 05:37:45;;;;;;;;;4.67;3.33;;;;;4.97;70.51;100186.53;5080616;27;69246;-66
2023/12/04 05:40:11;;;;;;;;;3.33;3.33;;;;;4.97;71.88;100189.16;5073071;27;45487;-65
2023/12/04 05:42:36;;;;;;;;;4.00;4.00;;;;;4.99;70.92;100163.59;5076763;27;45431;-65
2023/12/04 05:45:02;;;;;;;;;3.00;3.00;;;;;5.00;70.55;100167.94;5078805;27;45704;-66
2023/12/04 05:47:27;;;;;;;;;4.67;4.67;;;;;5.03;72.25;100172.25;5071738;28;45428;-65
2023/12/04 05:49:52;;;;;;;;;4.00;4.00;;;;;5.02;72.86;100160.88;5073449;27;71898;-65
2023/12/04 05:52:17;;;;;;;;;5.00;4.00;;;;;5.02;74.03;100160.88;5077045;27;57880;-66
2023/12/04 05:54:43;;;;;;;;;2.67;2.67;;;;;5.01;72.68;100151.22;5078839;27;68995;-66
2023/12/04 05:57:08;;;;;;;;;5.00;3.67;;;;;5.00;74.81;100148.66;5082895;27;68261;-66
2023/12/04 05:59:34;;;;;;;;;3.67;3.67;;;;;4.96;74.70;100146.09;5077216;28;70280;-66
2023/12/04 06:02:00;;;;;;;;;4.00;4.00;;;;;4.97;72.29;100118.00;5073571;27;47272;-67
2023/12/04 06:04:26;;;;;;;;;3.00;3.00;;;;;4.95;74.32;100109.28;5079451;27;45835;-66
2023/12/04 06:06:51;;;;;;;;;4.00;3.00;;;;;4.92;72.29;100104.13;5079116;27;45321;-66
2023/12/04 06:09:16;;;;;;;;;3.67;3.00;;;;;4.92;74.52;100098.84;5067544;28;45465;-65
2023/12/04 06:11:42;;;;;;;;;5.00;4.00;;;;;4.93;73.11;100095.31;5079253;27;75537;-66
2023/12/04 06:14:07;;;;;;;;;3.67;3.67;;;;;4.93;74.30;100076.88;5079753;27;59674;-64
2023/12/04 06:16:33;;;;;;;;;2.33;2.33;;;;;4.93;75.22;100082.13;5070322;28;61888;-66
2023/12/04 06:18:58;;;;;;;;;5.00;4.00;;;;;4.93;74.52;100066.31;5073049;27;72631;-66
2023/12/04 06:21:23;;;;;;;;;6.33;4.67;;;;;4.94;73.74;100073.28;5073018;27;72021;-67
2023/12/04 06:23:49;;;;;;;;;5.33;2.67;;;;;4.95;74.95;100060.06;5077840;27;67942;-66
2023/12/04 06:26:14;;;;;;;;;3.00;3.00;;;;;4.96;74.69;100082.84;5077203;28;45397;-66
2023/12/04 06:28:40;;;;;;;;;3.00;3.00;;;;;4.96;74.80;100071.47;5079237;27;45435;-66
2023/12/04 06:31:06;;;;;;;;;3.00;2.67;;;;;4.93;76.32;100082.97;5082292;27;47157;-66
2023/12/04 06:33:31;;;;;;;;;3.00;2.33;;;;;4.88;76.58;100066.47;5079157;27;46721;-65
2023/12/04 06:35:57;;;;;;;;;1.00;0.00;;;;;4.88;75.62;100084.94;5074031;28;45374;-65
2023/12/04 06:38:24;;;;;;;;;3.00;3.00;;;;;4.86;77.03;100070.94;5070928;27;45299;-66
2023/12/04 06:40:50;;;;;;;;;2.67;2.00;;;;;4.87;75.21;100061.28;5075589;27;45400;-65
2023/12/04 06:43:18;;;;;;;;;4.00;4.00;;;;;4.85;79.16;100056.06;5078616;27;45421;-66
2023/12/04 06:45:46;;;;;;;;;3.00;3.00;;;;;4.82;78.83;100052.69;5078622;27;45335;-66
2023/12/04 06:48:15;;;;;;;;;5.00;3.33;;;;;4.82;79.39;100050.03;5074153;27;45810;-67
2023/12/04 06:50:40;;;;;;;;;2.00;2.00;;;;;4.82;77.94;100040.34;5074545;27;47055;-66
2023/12/04 06:53:06;;;;;;;;;2.00;2.00;;;;;4.82;80.19;100035.09;5072508;28;73075;-65
2023/12/04 06:55:31;;;;;;;;;3.00;3.00;;;;;4.80;81.32;100031.66;5074042;28;59084;-65
2023/12/04 06:57:57;;;;;;;;;2.33;2.33;;;;;4.80;80.30;100029.88;5073055;27;46055;-65
2023/12/04 07:00:22;;;;;;;;;4.67;3.00;;;;;4.80;82.38;100023.75;5079159;27;45405;-65
2023/12/04 07:02:47;;;;;;;;;3.00;1.67;;;;;4.83;81.60;100017.50;5078255;27;45352;-68
2023/12/04 07:05:13;;;;;;;;;6.33;2.33;;;;;4.82;82.34;99999.97;5079751;27;67820;-65
2023/12/04 07:07:38;;;;;;;;;3.00;3.00;;;;;4.86;81.39;100001.56;5080276;27;69526;-65
2023/12/04 07:10:04;;;;;;;;;4.00;3.00;;;;;4.89;83.15;99996.16;5087912;27;75446;-66
2023/12/04 07:12:29;;;;;;;;;4.00;3.33;;;;;4.83;85.46;99999.91;5080499;28;45732;-66
2023/12/04 07:14:54;;;;;;;;;4.00;3.00;;;;;4.79;85.65;99993.91;5081081;27;53820;-65
2023/12/04 07:17:22;;;;;;;;;3.00;3.00;;;;;4.78;85.92;100010.66;5079397;27;70455;-65
2023/12/04 07:19:47;;;;;;;;;2.00;2.00;;;;;4.79;84.30;99990.41;5081756;27;47193;-66
2023/12/04 07:22:12;;;;;;;;;2.00;2.00;;;;;4.85;83.64;100005.13;5080330;27;50095;-65
2023/12/04 07:24:38;;;;;;;;;2.00;2.00;;;;;4.87;84.16;99998.03;5086839;27;69414;-65
2023/12/04 07:27:04;;;;;;;;;4.00;2.33;;;;;4.86;86.10;100005.06;5068905;28;45429;-67
2023/12/04 07:29:29;;;;;;;;;4.00;3.00;;;;;4.86;87.57;100004.22;5080545;28;45706;-66
2023/12/04 07:31:54;;;;;;;;;3.67;2.33;;;;;4.90;85.04;100004.03;5091237;27;45349;-66
2023/12/04 07:34:20;;;;;;;;;3.00;3.00;;;;;4.91;86.87;99991.72;5087520;27;69228;-66
2023/12/04 07:36:45;;;;;;;;;3.00;1.67;;;;;4.95;84.51;99986.28;5082559;27;45601;-65
2023/12/04 07:39:11;;;;;;;;;4.00;4.00;;;;;4.98;86.43;99985.28;5082022;27;75648;-58
2023/12/04 07:41:36;;;;;;;;;3.67;3.00;;;;;4.96;87.46;99995.03;5080889;27;55483;-64
2023/12/04 07:44:03;;;;;;;;;3.00;3.00;;;;;4.97;86.63;99980.94;5081248;27;45272;-63
2023/12/04 07:46:28;;;;;;;;;3.00;3.00;;;;;5.03;85.63;99971.91;5076876;27;45472;-62
2023/12/04 07:48:53;;;;;;;;;7.33;3.67;;;;;5.08;84.93;99977.84;5081280;27;75365;-62
2023/12/04 07:51:19;;;;;;;;;3.67;3.67;;;;;5.11;85.85;99964.53;5090199;27;45534;-63
2023/12/04 07:53:44;;;;;;;;;4.67;2.00;;;;;5.12;86.50;99963.63;5072935;27;51575;-62
2023/12/04 07:56:11;;;;;;;;;3.67;3.67;;;;;5.07;86.49;99955.91;5082015;27;45263;-61
2023/12/04 07:58:37;;;;;;;;;3.00;3.00;;;;;5.10;89.24;99961.06;5085666;27;45423;-63
2023/12/04 08:01:02;;;;;;;;;3.33;3.00;;;;;5.09;87.92;99964.59;5078031;27;73039;-62
2023/12/04 08:03:27;;;;;;;;;11.00;4.00;;;;;5.03;88.85;99962.25;5092199;27;45596;-62
2023/12/04 08:05:53;;;;;;;;;7.00;3.00;;;;;5.06;88.75;99954.19;5078588;27;68140;-63
2023/12/04 08:08:18;;;;;;;;;4.00;4.00;;;;;5.03;90.31;99948.19;5086905;27;65585;-63
2023/12/04 08:10:44;;;;;;;;;3.00;3.00;;;;;5.02;91.06;99936.81;5081498;27;45318;-62
2023/12/04 08:13:09;;;;;;;;;3.00;3.00;;;;;5.08;90.22;99933.88;5086042;27;45453;-63
2023/12/04 08:15:34;;;;;;;;;3.00;3.00;;;;;5.16;89.10;99938.00;5077084;27;70437;-63
2023/12/04 08:18:00;;;;;;;;;4.00;4.00;;;;;5.21;88.86;99936.88;5070924;28;72389;-63
2023/12/04 08:20:25;;;;;;;;;4.33;3.33;;;;;5.23;88.34;99939.47;5079383;28;45425;-62
2023/12/04 08:22:51;;;;;;;;;2.67;2.67;;;;;5.24;88.57;99931.50;5079764;27;46434;-62
2023/12/04 08:25:16;;;;;;;;;2.00;2.00;;;;;5.29;87.24;99937.44;5090001;27;45429;-62
2023/12/04 08:27:42;;;;;;;;;3.00;3.00;;;;;5.29;88.44;99933.94;5070719;27;46554;-61
2023/12/04 08:30:08;;;;;;;;;3.67;3.67;;;;;5.28;87.50;99938.34;5080238;27;45294;-63
2023/12/04 08:32:33;;;;;;;;;2.00;2.00;;;;;5.24;90.87;99941.16;5080214;28;45370;-63
2023/12/04 08:34:59;;;;;;;;;3.00;1.00;;;;;5.26;91.19;99937.53;5079582;27;46596;-62
2023/12/04 08:37:24;;;;;;;;;4.00;2.00;;;;;5.28;90.31;99929.59;5066329;28;68222;-63
2023/12/04 08:39:49;;;;;;;;;2.67;2.00;;;;;5.32;87.98;99932.94;5073763;28;45389;-60
2023/12/04 08:42:15;;;;;;;;;3.00;2.00;;;;;5.28;93.06;99929.59;5075211;28;46222;-60
2023/12/04 08:44:40;;;;;;;;;2.00;2.00;;;;;5.22;95.26;99916.66;5064599;28;69161;-60
2023/12/04 08:47:06;;;;;;;;;3.33;3.00;;;;;5.23;95.13;99918.38;5077680;28;45649;-60
2023/12/04 08:49:32;;;;;;;;;5.00;4.67;;;;;5.24;94.43;99913.03;5067249;27;45681;-61
2023/12/04 08:51:58;;;;;;;;;4.00;3.00;;;;;5.23;94.83;99921.88;5069584;27;45397;-62
2023/12/04 08:54:24;;;;;;;;;2.67;1.33;;;;;5.22;93.53;99908.75;5066450;28;45383;-61
2023/12/04 08:56:49;;;;;;;;;6.67;2.00;;;;;5.29;92.04;99911.06;5058837;28;45615;-61
2023/12/04 08:59:16;;;;;;;;;2.00;2.00;;;;;5.33;92.03;99901.22;5065356;27;45227;-61
2023/12/04 09:01:42;;;;;;;;;2.00;2.00;;;;;5.33;92.06;99903.84;5068433;27;45363;-61
2023/12/04 09:04:08;;;;;;;;;2.00;2.00;;;;;5.32;92.92;99899.53;5082900;27;45245;-61
2023/12/04 09:06:33;;;;;;;;;3.67;2.67;;;;;5.32;91.57;99891.63;5067736;27;46960;-61
2023/12/04 09:08:59;;;;;;;;;2.00;2.00;;;;;5.39;90.54;99890.41;5077618;28;59525;-61
2023/12/04 09:11:24;;;;;;;;;5.00;4.00;;;;;5.49;90.73;99882.09;5077277;28;69653;-60
2023/12/04 09:13:49;;;;;;;;;1.00;1.00;;;;;5.51;90.49;99889.03;5078382;28;70763;-60
2023/12/04 09:16:14;;;;;;;;;1.33;1.33;;;;;5.60;89.30;99893.06;5078456;28;74546;-60
2023/12/04 09:18:40;;;;;;;;;2.67;2.67;;;;;5.68;89.17;99893.56;5064757;27;68925;-60
2023/12/04 09:21:05;;;;;;;;;4.00;2.67;;;;;5.72;89.14;99884.63;5078508;27;67402;-60
2023/12/04 09:23:31;;;;;;;;;3.00;2.67;;;;;5.77;88.79;99887.03;5079540;28;45459;-60
2023/12/04 09:25:56;;;;;;;;;3.00;3.00;;;;;5.76;88.39;99875.63;5077556;28;74044;-60
2023/12/04 09:28:21;;;;;;;;;4.00;2.00;;;;;5.81;88.33;99872.78;5073149;27;72436;-60
2023/12/04 09:30:47;;;;;;;;;1.67;1.67;;;;;5.86;88.95;99864.66;5067363;28;63128;-60
2023/12/04 09:33:12;;;;;;;;;3.33;3.33;;;;;5.88;87.98;99881.25;5079544;28;45417;-60
2023/12/04 09:35:37;;;;;;;;;2.67;2.67;;;;;5.87;88.41;99863.75;5074953;28;63140;-60
2023/12/04 09:38:03;;;;;;;;;3.00;2.00;;;;;5.88;87.60;99857.50;5079088;28;50056;-60
2023/12/04 09:40:28;;;;;;;;;4.00;2.00;;;;;5.95;88.25;99848.41;5073688;27;45286;-60
2023/12/04 09:42:53;;;;;;;;;2.00;2.00;;;;;6.01;87.98;99856.06;5072808;28;57393;-60
2023/12/04 09:45:20;;;;;;;;;3.33;3.33;;;;;6.07;87.49;99847.00;5066904;27;45553;-61
2023/12/04 09:47:45;;;;;;;;;4.33;3.33;;;;;6.12;86.80;99831.81;5078295;28;45481;-61
2023/12/04 09:50:11;;;;;;;;;1.00;1.00;;;;;6.13;87.67;99836.16;5077735;28;45264;-63
2023/12/04 09:52:36;;;;;;;;;2.00;2.00;;;;;6.12;88.35;99840.56;5084979;27;45501;-62
2023/12/04 09:55:01;;;;;;;;;2.00;2.00;;;;;6.13;88.88;99813.25;5067730;27;65252;-61
2023/12/04 09:57:27;;;;;;;;;4.00;2.00;;;;;6.15;88.32;99812.31;5072806;27;45655;-61
2023/12/04 09:59:53;;;;;;;;;2.00;2.00;;;;;6.18;88.63;99807.75;5076509;28;68140;-60
2023/12/04 10:02:19;;;;;;;;;2.00;2.00;;;;;6.29;88.43;99799.31;5077125;27;70219;-60
2023/12/04 10:04:45;;;;;;;;;2.67;2.67;;;;;6.39;86.41;99800.56;5065910;27;46458;-60
2023/12/04 10:07:10;;;;;;;;;3.67;2.00;;;;;6.41;87.37;99787.28;5072095;28;72071;-60
2023/12/04 10:09:36;;;;;;;;;3.00;3.00;;;;;6.38;88.39;99783.00;5077457;28;68634;-61
2023/12/04 10:12:01;;;;;;;;;2.00;2.00;;;;;6.33;90.58;99785.03;5078609;27;45584;-61
2023/12/04 10:14:27;;;;;;;;;4.33;3.67;;;;;6.26;90.24;99775.69;5077112;27;45449;-61
2023/12/04 10:16:53;;;;;;;;;3.00;3.00;;;;;6.27;89.61;99780.03;5076579;27;45807;-60
2023/12/04 10:19:26;;;;;;;;;1.33;1.00;;;;;6.27;90.01;99761.53;5068453;27;45411;-61
2023/12/04 10:21:52;;;;;;;;;4.00;2.00;;;;;6.34;90.52;99772.69;5079569;27;45341;-61
2023/12/04 10:24:35;;;;;;;;;7.67;3.33;;;;;6.43;90.07;99766.94;5074776;27;48321;-61
2023/12/04 10:27:01;;;;;;;;;4.00;4.00;;;;;6.54;89.68;99764.63;5077013;27;45809;-61
2023/12/04 10:29:29;;;;;;;;;2.00;2.00;;;;;6.66;89.42;99754.38;5077340;27;45708;-61
2023/12/04 10:31:55;;;;;;;;;2.33;2.33;;;;;6.78;89.64;99767.81;5078020;28;45544;-61
2023/12/04 10:34:21;;;;;;;;;2.67;1.67;;;;;6.84;90.05;99744.66;5068129;27;46958;-61
2023/12/04 10:36:46;;;;;;;;;2.67;2.67;;;;;6.98;88.68;99743.97;5058200;28;45231;-60
2023/12/04 10:39:15;;;;;;;;;2.00;2.00;;;;;7.10;88.39;99741.53;5060920;28;45331;-61
2023/12/04 10:41:41;;;;;;;;;1.00;1.00;;;;;7.22;87.64;99736.50;5058535;28;45535;-61
2023/12/04 10:44:06;;;;;;;;;1.67;1.67;;;;;7.38;87.42;99731.25;5055591;28;61713;-61
2023/12/04 10:46:32;;;;;;;;;5.00;3.67;;;;;7.49;86.64;99720.94;5041674;28;45387;-61
2023/12/04 10:48:58;;;;;;;;;2.00;2.00;;;;;7.55;86.74;99717.13;5057851;28;69215;-61
2023/12/04 10:51:25;;;;;;;;;4.00;2.00;;;;;7.71;86.00;99715.31;5039906;28;45717;-61
2023/12/04 10:53:51;;;;;;;;;2.00;2.00;;;;;7.97;85.50;99702.44;5064611;28;73335;-61
2023/12/04 10:56:24;;;;;;;;;1.67;1.67;;;;;8.17;84.29;99708.38;5056979;28;62373;-61
2023/12/04 10:58:51;;;;;;;;;4.00;2.00;;;;;8.25;83.34;99698.19;5048521;28;45318;-61
2023/12/04 11:01:18;;;;;;;;;1.00;1.00;;;;;8.24;83.07;99694.69;5039217;28;45459;-59
2023/12/04 11:03:53;;;;;;;;;3.00;3.00;;;;;8.28;82.97;99680.31;5025181;28;45458;-59
2023/12/04 11:06:20;;;;;;;;;4.00;2.67;;;;;8.40;82.91;99676.09;5035565;28;45786;-58
2023/12/04 11:08:48;;;;;;;;;5.67;4.00;;;;;8.60;82.97;99666.16;5046088;28;45458;-58
2023/12/04 11:11:16;;;;;;;;;5.00;3.67;;;;;8.82;81.65;99649.81;5052688;28;45435;-58
2023/12/04 11:13:42;;;;;;;;;2.00;2.00;;;;;8.96;80.13;99648.97;5034438;28;45375;-59
2023/12/04 11:16:28;;;;;;;;;3.33;3.33;;;;;9.03;79.63;99650.28;5044890;28;45482;-58
2023/12/04 11:19:02;;;;;;;;;2.67;2.67;;;;;9.04;79.14;99632.56;5028697;28;45363;-58
2023/12/04 11:21:28;;;;;;;;;3.00;3.00;;;;;8.93;79.00;99638.56;5062909;28;45517;-58
2023/12/04 11:23:53;;;;;;;;;6.33;3.33;;;;;8.85;79.21;99635.50;5054429;28;57797;-58
2023/12/04 11:26:19;;;;;;;;;2.00;2.00;;;;;8.86;79.80;99622.16;5059056;28;73006;-58
2023/12/04 11:28:45;;;;;;;;;3.00;2.33;;;;;8.87;79.90;99607.94;5042711;28;68158;-58